首页
METAR-TAF:

METAR-TAF

机场 :

大连周水子国际机场

大连, 中华人民共和国

纬度: 38-54N, 经度: 121-38E, 海拔: 97米

当前天气观测

该预报发布于30分钟前的20:30 UTC
风速10节,风向北转西北,在西北北转东北之间变化
温度 21°C
湿度 69%
气压 1005 hPa
能见度10公里或以上
散云层高于2300英尺

METAR: ZYTL 232030Z 34005MPS 310V030 9999 SCT023 21/15 Q1005 NOSIG

时间: 05:00 (21:00 UTC)

预报

该预报发布于5小时和58分钟前的15:02 UTC
预报有效从23日的 18点(UTC)到 24日的 18点(UTC)
风速8节,风向北转西北,有时为17节阵风
能見度: 6000

TAF: ZYTL 231502Z 2318/2418 33004G09MPS 6000 NSC TX28/2406Z TN21/2320Z

超过4000个机场的气象观测和天气预报(METAR&TAF报告)。

可查询的气象台以黄色和红色小点在地图上表示。

将鼠标移到小点上方,可查看气象台名称。

然后点击查看天气观测和预报。

如需切换地图:点击带黑十字的绿色按钮放大地图;点击带横线的绿色按钮缩小地图;或者点击绿色箭头查看邻近地区的地图。


METAR-TAF: